createdAt,value
2018-10-02T00:01:07.077Z,4.43
2018-10-02T00:03:35.231Z,4.97
2018-10-02T00:06:03.247Z,3.43
2018-10-02T00:08:31.248Z,4.50
2018-10-02T00:11:04.663Z,3.67
2018-10-02T00:13:37.976Z,3.62
2018-10-02T00:16:06.638Z,3.10
2018-10-02T00:18:34.803Z,3.10
2018-10-02T00:21:02.806Z,3.13
2018-10-02T00:23:30.833Z,3.10
2018-10-02T00:25:58.846Z,3.13
2018-10-02T00:28:26.835Z,2.83
2018-10-02T00:30:54.886Z,3.20
2018-10-02T00:33:22.958Z,2.97
2018-10-02T00:35:50.977Z,4.23
2018-10-02T00:38:18.979Z,3.40
2018-10-02T00:40:46.994Z,4.07
2018-10-02T00:43:14.993Z,3.30
2018-10-02T00:45:43.006Z,3.50
2018-10-02T00:48:11.016Z,3.40
2018-10-02T00:50:39.017Z,3.03
2018-10-02T00:53:07.028Z,3.93
2018-10-02T00:55:35.059Z,3.97
2018-10-02T00:58:03.223Z,3.70
2018-10-02T01:00:31.223Z,3.70
2018-10-02T01:02:59.231Z,3.60
2018-10-02T01:05:27.240Z,3.70
2018-10-02T01:07:55.255Z,3.43
2018-10-02T01:10:23.286Z,4.87
2018-10-02T01:12:51.303Z,4.00
2018-10-02T01:15:19.295Z,3.57
2018-10-02T01:17:47.315Z,4.07
2018-10-02T01:20:15.311Z,3.83
2018-10-02T01:22:43.303Z,4.27
2018-10-02T01:25:11.302Z,4.03
2018-10-02T01:27:39.322Z,4.53
2018-10-02T01:30:07.388Z,4.40
2018-10-02T01:32:35.627Z,4.70
2018-10-02T01:35:03.792Z,4.60
2018-10-02T01:37:31.799Z,5.07
2018-10-02T01:39:59.814Z,5.23
2018-10-02T01:42:27.824Z,4.57
2018-10-02T01:44:55.822Z,5.20
2018-10-02T01:47:23.818Z,5.87
2018-10-02T01:49:51.832Z,5.67
2018-10-02T01:52:19.830Z,4.92
2018-10-02T01:54:47.826Z,5.07
2018-10-02T01:57:15.842Z,4.30
2018-10-02T01:59:43.859Z,5.20
2018-10-02T02:02:11.858Z,5.10
2018-10-02T02:04:40.027Z,5.03
2018-10-02T02:07:08.031Z,4.73
2018-10-02T02:09:36.042Z,4.60
2018-10-02T02:12:04.962Z,5.12
2018-10-02T02:14:32.982Z,4.70
2018-10-02T02:17:00.986Z,3.87
2018-10-02T02:19:29.150Z,4.37
2018-10-02T02:21:57.160Z,4.53
2018-10-02T02:24:25.155Z,4.67
2018-10-02T02:26:53.188Z,4.00
2018-10-02T02:29:21.187Z,4.20
2018-10-02T02:31:49.175Z,4.13
2018-10-02T02:34:17.215Z,4.40
2018-10-02T02:36:45.221Z,3.70
2018-10-02T02:39:13.211Z,4.55
2018-10-02T02:41:41.215Z,3.83
2018-10-02T02:44:09.223Z,3.87
2018-10-02T02:46:37.210Z,4.10
2018-10-02T02:49:10.640Z,4.30
2018-10-02T02:51:38.650Z,3.93
2018-10-02T02:54:06.687Z,4.00
2018-10-02T02:56:34.691Z,3.90
2018-10-02T02:59:03.514Z,4.10
2018-10-02T03:01:31.535Z,3.80
2018-10-02T03:03:59.920Z,4.10
2018-10-02T03:06:27.958Z,4.00
2018-10-02T03:08:56.287Z,3.97
2018-10-02T03:11:24.293Z,3.40
2018-10-02T03:13:52.291Z,3.60
2018-10-02T03:16:20.607Z,3.42
2018-10-02T03:18:48.611Z,3.60
2018-10-02T03:21:16.685Z,3.33
2018-10-02T03:23:44.703Z,3.60
2018-10-02T03:26:12.882Z,3.87
2018-10-02T03:28:40.897Z,3.47
2018-10-02T03:31:08.972Z,3.53
2018-10-02T03:33:37.010Z,3.57
2018-10-02T03:36:05.083Z,3.37
2018-10-02T03:38:33.168Z,3.23
2018-10-02T03:41:01.167Z,3.13
2018-10-02T03:43:29.299Z,3.80
2018-10-02T03:45:57.310Z,3.43
2018-10-02T03:48:25.534Z,3.20
2018-10-02T03:50:53.832Z,3.17
2018-10-02T03:53:21.891Z,3.10
2018-10-02T03:55:49.911Z,3.83
2018-10-02T03:58:17.919Z,3.40
2018-10-02T04:00:46.132Z,4.17
2018-10-02T04:03:14.223Z,3.60
2018-10-02T04:05:42.275Z,3.63
2018-10-02T04:08:10.283Z,4.10
2018-10-02T04:10:38.298Z,3.23
2018-10-02T04:13:06.817Z,4.07
2018-10-02T04:15:34.759Z,3.93
2018-10-02T04:18:02.970Z,3.43
2018-10-02T04:20:31.104Z,4.50
2018-10-02T04:22:59.127Z,4.40
2018-10-02T04:25:27.143Z,4.47
2018-10-02T04:27:55.178Z,4.17
2018-10-02T04:30:23.158Z,4.23
2018-10-02T04:32:51.171Z,4.80
2018-10-02T04:35:19.190Z,4.90
2018-10-02T04:37:47.211Z,5.10
2018-10-02T04:40:15.222Z,6.00
2018-10-02T04:42:43.223Z,4.90
2018-10-02T04:45:11.235Z,5.90
2018-10-02T04:47:39.270Z,6.10
2018-10-02T04:50:07.531Z,6.30
2018-10-02T04:52:35.578Z,6.20
2018-10-02T04:55:04.719Z,6.12
2018-10-02T04:57:32.657Z,5.97
2018-10-02T05:00:00.731Z,6.20
2018-10-02T05:02:28.866Z,6.60
2018-10-02T05:04:56.819Z,6.57
2018-10-02T05:07:24.838Z,5.77
2018-10-02T05:09:52.856Z,6.40
2018-10-02T05:12:20.965Z,7.33
2018-10-02T05:14:48.980Z,6.80
2018-10-02T05:17:16.977Z,6.90
2018-10-02T05:19:44.984Z,6.73
2018-10-02T05:22:13.057Z,7.40
2018-10-02T05:24:41.141Z,7.13
2018-10-02T05:27:09.200Z,7.83
2018-10-02T05:29:37.164Z,7.53
2018-10-02T05:32:05.343Z,7.97
2018-10-02T05:34:33.408Z,7.53
2018-10-02T05:37:01.483Z,7.53
2018-10-02T05:39:29.564Z,8.50
2018-10-02T05:41:57.636Z,7.67
2018-10-02T05:44:25.992Z,8.83
2018-10-02T05:46:54.001Z,7.80
2018-10-02T05:49:22.023Z,8.03
2018-10-02T05:51:50.225Z,8.00
2018-10-02T05:54:18.236Z,8.27
2018-10-02T05:56:46.375Z,8.27
2018-10-02T05:59:14.597Z,8.53
2018-10-02T06:01:42.617Z,9.03
2018-10-02T06:04:10.872Z,8.83
2018-10-02T06:06:38.973Z,9.20
2018-10-02T06:09:09.076Z,8.50
2018-10-02T06:11:37.315Z,8.10
2018-10-02T06:14:05.789Z,9.40
2018-10-02T06:16:33.838Z,9.60
2018-10-02T06:19:02.244Z,8.90
2018-10-02T06:21:30.289Z,9.00
2018-10-02T06:23:58.539Z,10.17
2018-10-02T06:26:26.592Z,9.90
2018-10-02T06:28:54.731Z,8.73
2018-10-02T06:31:22.755Z,8.98
2018-10-02T06:33:50.792Z,9.27
2018-10-02T06:36:18.795Z,9.37
2018-10-02T06:38:47.709Z,9.13
2018-10-02T06:41:15.714Z,9.00
2018-10-02T06:43:43.747Z,8.90
2018-10-02T06:46:11.832Z,8.80
2018-10-02T06:48:39.842Z,9.43
2018-10-02T06:51:08.178Z,9.17
2018-10-02T06:53:36.528Z,9.13
2018-10-02T06:56:05.045Z,8.43
2018-10-02T06:58:33.080Z,8.43
2018-10-02T07:01:01.113Z,9.07
2018-10-02T07:03:29.124Z,8.50
2018-10-02T07:05:57.256Z,7.75
2018-10-02T07:08:25.293Z,6.60
2018-10-02T07:10:53.311Z,7.80
2018-10-02T07:13:21.332Z,8.35
2018-10-02T07:15:49.536Z,9.23
2018-10-02T07:18:17.551Z,7.90
2018-10-02T07:20:45.678Z,7.70
2018-10-02T07:23:13.601Z,7.80
2018-10-02T07:25:41.619Z,6.97
2018-10-02T07:28:09.653Z,7.20
2018-10-02T07:30:37.722Z,7.97
2018-10-02T07:33:05.788Z,7.50
2018-10-02T07:35:33.695Z,7.23
2018-10-02T07:38:01.732Z,7.50
2018-10-02T07:40:29.736Z,6.47
2018-10-02T07:42:58.585Z,7.83
2018-10-02T07:45:26.596Z,6.20
2018-10-02T07:47:54.788Z,6.80
2018-10-02T07:50:22.830Z,6.43
2018-10-02T07:52:50.791Z,7.23
2018-10-02T07:55:18.811Z,7.12
2018-10-02T07:57:46.832Z,7.47
2018-10-02T08:00:15.116Z,7.60
2018-10-02T08:02:43.142Z,6.67
2018-10-02T08:05:11.286Z,6.62
2018-10-02T08:07:39.253Z,7.03
2018-10-02T08:10:07.274Z,7.37
2018-10-02T08:12:35.291Z,7.40
2018-10-02T08:15:03.559Z,7.10
2018-10-02T08:17:31.603Z,7.20
2018-10-02T08:19:59.697Z,7.03
2018-10-02T08:22:27.592Z,7.50
2018-10-02T08:24:55.992Z,7.33
2018-10-02T08:27:24.081Z,5.87
2018-10-02T08:29:52.108Z,7.27
2018-10-02T08:32:20.068Z,7.17
2018-10-02T08:34:48.076Z,6.80
2018-10-02T08:37:16.163Z,5.80
2018-10-02T08:39:44.172Z,6.00
2018-10-02T08:42:12.180Z,5.60
2018-10-02T08:44:40.439Z,6.40
2018-10-02T08:47:08.436Z,6.03
2018-10-02T08:49:36.467Z,6.97
2018-10-02T08:52:05.102Z,7.03
2018-10-02T08:54:32.988Z,6.90
2018-10-02T08:57:01.003Z,5.87
2018-10-02T08:59:29.035Z,6.67
2018-10-02T09:01:57.048Z,5.43
2018-10-02T09:04:25.067Z,5.67
2018-10-02T09:06:58.410Z,5.90
2018-10-02T09:09:26.614Z,6.22
2018-10-02T09:11:54.680Z,5.97
2018-10-02T09:14:22.708Z,6.60
2018-10-02T09:16:50.785Z,6.43
2018-10-02T09:19:18.888Z,6.03
2018-10-02T09:21:47.137Z,6.40
2018-10-02T09:24:15.084Z,6.17
2018-10-02T09:26:43.116Z,6.30
2018-10-02T09:29:11.194Z,6.53
2018-10-02T09:31:44.644Z,6.23
2018-10-02T09:34:18.191Z,6.70
2018-10-02T09:36:51.522Z,7.43
2018-10-02T09:39:24.900Z,7.03
2018-10-02T09:44:32.664Z,7.07
2018-10-02T09:47:00.852Z,6.97
2018-10-02T09:49:28.868Z,7.23
2018-10-02T09:51:57.013Z,7.10
2018-10-02T09:54:25.053Z,7.53
2018-10-02T09:56:53.201Z,8.10
2018-10-02T09:59:21.179Z,9.03
2018-10-02T10:02:09.778Z,8.97
2018-10-02T10:04:37.816Z,8.80
2018-10-02T10:07:06.005Z,9.20
2018-10-02T10:09:34.041Z,9.03
2018-10-02T10:12:02.079Z,10.17
2018-10-02T10:14:30.120Z,10.07
2018-10-02T10:16:58.206Z,10.00
2018-10-02T10:19:26.361Z,9.78
2018-10-02T10:22:10.342Z,10.47
2018-10-02T10:24:38.479Z,9.33
2018-10-02T10:27:06.839Z,11.33
2018-10-02T10:29:34.926Z,10.73
2018-10-02T10:32:03.383Z,10.97
2018-10-02T10:37:10.971Z,11.77
2018-10-02T10:39:38.988Z,11.80
2018-10-02T10:42:07.067Z,11.53
2018-10-02T10:44:35.108Z,11.47
2018-10-02T10:47:03.503Z,12.23
2018-10-02T10:49:31.464Z,12.90
2018-10-02T10:51:59.557Z,12.37
2018-10-02T10:54:27.596Z,12.80
2018-10-02T10:56:55.663Z,14.53
2018-10-02T10:59:23.687Z,14.20
2018-10-02T11:01:51.819Z,14.07
2018-10-02T11:04:19.859Z,14.30
2018-10-02T11:06:48.012Z,14.60
2018-10-02T11:09:16.081Z,14.87
2018-10-02T11:11:44.044Z,14.50
2018-10-02T11:14:12.373Z,14.18
2018-10-02T11:16:40.556Z,14.37
2018-10-02T11:19:14.977Z,14.67
2018-10-02T11:21:43.017Z,14.87
2018-10-02T11:24:11.240Z,14.30
2018-10-02T11:26:39.272Z,16.00
2018-10-02T11:29:07.364Z,15.10
2018-10-02T11:31:35.467Z,15.80
2018-10-02T11:34:03.494Z,14.93
2018-10-02T11:36:31.540Z,15.47
2018-10-02T11:39:00.155Z,16.63
2018-10-02T11:41:28.195Z,14.50
2018-10-02T11:43:56.461Z,15.73
2018-10-02T11:46:24.429Z,16.07
2018-10-02T11:48:52.536Z,16.57
2018-10-02T11:51:20.611Z,14.33
2018-10-02T11:53:48.627Z,16.93
2018-10-02T11:56:16.640Z,15.57
2018-10-02T11:58:44.671Z,16.80
2018-10-02T12:01:12.770Z,15.78
2018-10-02T12:03:40.716Z,14.40
2018-10-02T12:06:09.320Z,15.27
2018-10-02T12:08:37.360Z,14.63
2018-10-02T12:11:05.468Z,14.13
2018-10-02T12:13:33.759Z,14.43
2018-10-02T12:16:01.915Z,14.80
2018-10-02T12:18:29.931Z,14.23
2018-10-02T12:20:57.961Z,13.63
2018-10-02T12:23:26.135Z,14.40
2018-10-02T12:25:54.383Z,13.80
2018-10-02T12:28:22.460Z,13.50
2018-10-02T12:30:50.524Z,12.83
2018-10-02T12:33:18.540Z,13.40
2018-10-02T12:35:46.783Z,13.63
2018-10-02T12:38:14.857Z,15.55
2018-10-02T12:40:42.952Z,16.30
2018-10-02T12:43:11.307Z,15.27
2018-10-02T12:45:39.380Z,14.23
2018-10-02T12:48:07.472Z,13.30
2018-10-02T12:50:35.532Z,14.30
2018-10-02T12:53:03.599Z,14.00
2018-10-02T12:55:31.672Z,13.13
2018-10-02T12:57:59.756Z,12.43
2018-10-02T13:00:27.803Z,13.83
2018-10-02T13:02:55.820Z,15.27
2018-10-02T13:05:23.944Z,12.53
2018-10-02T13:07:52.067Z,11.47
2018-10-02T13:10:20.100Z,11.33
2018-10-02T13:12:48.162Z,12.00
2018-10-02T13:15:16.240Z,13.32
2018-10-02T13:17:44.600Z,12.63
2018-10-02T13:20:12.611Z,12.23
2018-10-02T13:22:40.643Z,11.43
2018-10-02T13:25:08.697Z,12.77
2018-10-02T13:27:36.697Z,11.43
2018-10-02T13:30:06.078Z,12.40
2018-10-02T13:32:34.126Z,12.10
2018-10-02T13:35:02.209Z,10.70
2018-10-02T13:37:30.248Z,11.97
2018-10-02T13:39:58.267Z,11.67
2018-10-02T13:42:26.288Z,11.57
2018-10-02T13:44:54.317Z,11.00
2018-10-02T13:47:22.345Z,11.47
2018-10-02T13:49:51.138Z,11.20
2018-10-02T13:52:19.312Z,10.23
2018-10-02T13:54:47.696Z,9.87
2018-10-02T13:57:16.503Z,9.70
2018-10-02T13:59:44.533Z,10.47
2018-10-02T14:02:12.636Z,9.33
2018-10-02T14:04:41.351Z,9.37
2018-10-02T14:07:09.586Z,8.73
2018-10-02T14:09:37.607Z,8.90
2018-10-02T14:12:05.633Z,9.87
2018-10-02T14:14:35.467Z,9.23
2018-10-02T14:17:03.495Z,7.97
2018-10-02T14:19:32.466Z,8.87
2018-10-02T14:22:00.772Z,8.67
2018-10-02T14:24:29.271Z,8.80
2018-10-02T14:26:57.291Z,7.23
2018-10-02T14:29:25.424Z,5.37
2018-10-02T14:31:53.463Z,4.90
2018-10-02T14:34:22.096Z,4.40
2018-10-02T14:36:50.100Z,3.70
2018-10-02T14:39:18.276Z,2.90
2018-10-02T14:41:46.382Z,4.03
2018-10-02T14:44:14.472Z,3.93
2018-10-02T14:46:42.528Z,6.30
2018-10-02T14:49:10.549Z,4.97
2018-10-02T14:51:38.676Z,3.60
2018-10-02T14:54:06.756Z,3.63
2018-10-02T14:56:34.788Z,3.77
2018-10-02T14:59:04.168Z,3.40
2018-10-02T15:01:32.195Z,3.07
2018-10-02T15:04:00.216Z,2.50
2018-10-02T15:06:28.255Z,2.57
2018-10-02T15:08:56.388Z,2.97
2018-10-02T15:11:24.449Z,2.97
2018-10-02T15:13:52.484Z,2.50
2018-10-02T15:16:20.499Z,2.72
2018-10-02T15:18:48.525Z,2.70
2018-10-02T15:21:16.544Z,2.70
2018-10-02T15:23:44.567Z,3.00
2018-10-02T15:26:12.875Z,2.40
2018-10-02T15:28:40.964Z,2.70
2018-10-02T15:31:08.993Z,2.67
2018-10-02T15:33:37.392Z,2.63
2018-10-02T15:36:05.424Z,2.90
2018-10-02T15:38:33.464Z,2.13
2018-10-02T15:41:01.922Z,2.13
2018-10-02T15:43:29.948Z,2.70
2018-10-02T15:45:57.980Z,2.50
2018-10-02T15:48:26.024Z,2.50
2018-10-02T15:50:54.089Z,2.70
2018-10-02T15:53:22.085Z,2.93
2018-10-02T15:55:50.109Z,2.90
2018-10-02T15:58:18.135Z,2.97
2018-10-02T16:00:46.480Z,3.13
2018-10-02T16:03:14.525Z,2.95
2018-10-02T16:05:42.541Z,2.87
2018-10-02T16:08:10.585Z,3.13
2018-10-02T16:10:38.612Z,3.07
2018-10-02T16:13:06.824Z,3.23
2018-10-02T16:15:34.859Z,3.10
2018-10-02T16:18:02.925Z,2.90
2018-10-02T16:20:30.918Z,2.90
2018-10-02T16:22:58.935Z,2.97
2018-10-02T16:25:26.961Z,3.20
2018-10-02T16:27:55.000Z,3.03
2018-10-02T16:30:23.015Z,2.40
2018-10-02T16:32:51.068Z,3.57
2018-10-02T16:35:19.093Z,3.47
2018-10-02T16:37:47.117Z,2.70
2018-10-02T16:40:15.132Z,3.27
2018-10-02T16:42:43.303Z,3.20
2018-10-02T16:45:11.352Z,2.62
2018-10-02T16:47:39.427Z,3.07
2018-10-02T16:50:07.460Z,2.67
2018-10-02T16:52:36.387Z,2.73
2018-10-02T16:55:05.292Z,2.72
2018-10-02T16:57:33.319Z,2.90
2018-10-02T17:00:01.472Z,3.07
2018-10-02T17:02:29.564Z,3.27
2018-10-02T17:04:57.581Z,3.53
2018-10-02T17:07:25.748Z,3.10
2018-10-02T17:09:53.780Z,3.50
2018-10-02T17:12:21.796Z,3.97
2018-10-02T17:14:49.846Z,4.40
2018-10-02T17:17:17.867Z,3.07
2018-10-02T17:19:46.537Z,3.23
2018-10-02T17:22:14.577Z,3.15
2018-10-02T17:24:42.779Z,3.50
2018-10-02T17:27:10.928Z,3.33
2018-10-02T17:29:38.947Z,3.47
2018-10-02T17:32:08.044Z,4.67
2018-10-02T17:34:36.082Z,3.40
2018-10-02T17:37:05.247Z,3.43
2018-10-02T17:39:33.264Z,3.20
2018-10-02T17:42:01.288Z,3.87
2018-10-02T17:44:29.317Z,3.57
2018-10-02T17:46:57.407Z,3.40
2018-10-02T17:49:25.450Z,4.07
2018-10-02T17:51:53.436Z,3.50
2018-10-02T17:54:21.644Z,3.07
2018-10-02T17:56:49.660Z,4.10
2018-10-02T17:59:17.692Z,3.92
2018-10-02T18:01:45.876Z,4.23
2018-10-02T18:04:13.897Z,4.37
2018-10-02T18:06:41.912Z,4.00
2018-10-02T18:09:09.952Z,3.55
2018-10-02T18:11:38.288Z,4.27
2018-10-02T18:14:06.323Z,3.97
2018-10-02T18:16:34.352Z,3.97
2018-10-02T18:19:02.476Z,4.13
2018-10-02T18:21:30.528Z,4.37
2018-10-02T18:23:58.772Z,4.90
2018-10-02T18:26:26.859Z,3.83
2018-10-02T18:28:55.056Z,4.40
2018-10-02T18:31:23.159Z,4.30
2018-10-02T18:33:51.472Z,4.50
2018-10-02T18:36:19.524Z,4.30
2018-10-02T18:38:47.579Z,4.73
2018-10-02T18:41:15.612Z,3.90
2018-10-02T18:43:43.659Z,4.37
2018-10-02T18:46:11.700Z,4.27
2018-10-02T18:48:39.748Z,4.10
2018-10-02T18:51:07.760Z,4.63
2018-10-02T18:53:35.799Z,4.22
2018-10-02T18:56:05.063Z,5.17
2018-10-02T18:58:33.088Z,3.87
2018-10-02T19:01:01.162Z,4.17
2018-10-02T19:03:29.228Z,4.27
2018-10-02T19:05:57.312Z,4.10
2018-10-02T19:08:30.696Z,4.47
2018-10-02T19:13:04.904Z,4.77
2018-10-02T19:15:38.180Z,4.40
2018-10-02T19:18:06.218Z,4.77
2018-10-02T19:20:39.609Z,4.63
2018-10-02T19:23:07.640Z,4.87
2018-10-02T19:25:40.928Z,4.40
2018-10-02T19:28:09.107Z,4.47
2018-10-02T19:30:42.380Z,4.73
2018-10-02T19:33:10.408Z,4.83
2018-10-02T19:35:38.436Z,5.10
2018-10-02T19:38:11.878Z,4.20
2018-10-02T19:40:39.928Z,4.33
2018-10-02T19:43:07.948Z,4.50
2018-10-02T19:45:41.225Z,4.53
2018-10-02T19:48:09.260Z,5.42
2018-10-02T19:50:37.297Z,5.03
2018-10-02T19:53:06.317Z,4.50
2018-10-02T19:55:34.323Z,7.47
2018-10-02T19:58:03.245Z,6.93
2018-10-02T20:00:31.273Z,5.03
2018-10-02T20:02:59.448Z,6.07
2018-10-02T20:05:27.492Z,5.50
2018-10-02T20:07:55.516Z,4.77
2018-10-02T20:10:24.429Z,5.43
2018-10-02T20:12:52.452Z,4.70
2018-10-02T20:15:20.741Z,4.53
2018-10-02T20:17:48.768Z,4.77
2018-10-02T20:20:16.816Z,5.03
2018-10-02T20:22:44.916Z,4.50
2018-10-02T20:25:12.948Z,5.37
2018-10-02T20:27:41.112Z,4.43
2018-10-02T20:30:09.147Z,5.50
2018-10-02T20:32:37.178Z,5.47
2018-10-02T20:35:05.201Z,5.03
2018-10-02T20:37:33.226Z,5.47
2018-10-02T20:40:01.236Z,5.10
2018-10-02T20:42:29.259Z,4.93
2018-10-02T20:44:57.290Z,4.70
2018-10-02T20:47:25.311Z,5.40
2018-10-02T20:49:53.872Z,5.03
2018-10-02T20:52:21.904Z,4.90
2018-10-02T20:54:50.520Z,5.28
2018-10-02T20:57:18.559Z,4.87
2018-10-02T20:59:46.604Z,4.80
2018-10-02T21:02:14.777Z,4.60
2018-10-02T21:04:43.801Z,5.47
2018-10-02T21:07:11.828Z,5.55
2018-10-02T21:09:40.016Z,5.30
2018-10-02T21:12:08.040Z,4.63
2018-10-02T21:14:36.044Z,4.80
2018-10-02T21:17:07.132Z,5.00
2018-10-02T21:19:35.184Z,6.23
2018-10-02T21:22:03.223Z,5.07
2018-10-02T21:24:31.268Z,5.20
2018-10-02T21:26:59.284Z,5.27
2018-10-02T21:29:27.822Z,5.70
2018-10-02T21:31:55.896Z,6.00
2018-10-02T21:34:23.912Z,5.30
2018-10-02T21:36:52.078Z,5.67
2018-10-02T21:39:20.099Z,5.03
2018-10-02T21:41:48.116Z,4.90
2018-10-02T21:44:16.149Z,5.83
2018-10-02T21:46:44.160Z,5.10
2018-10-02T21:49:12.194Z,5.60
2018-10-02T21:51:40.197Z,5.67
2018-10-02T21:54:08.223Z,5.20
2018-10-02T21:56:36.275Z,6.00
2018-10-02T21:59:05.620Z,5.50
2018-10-02T22:01:33.683Z,5.97
2018-10-02T22:04:01.713Z,5.23
2018-10-02T22:06:29.740Z,5.90
2018-10-02T22:08:57.764Z,5.13
2018-10-02T22:11:25.784Z,6.33
2018-10-02T22:13:53.791Z,6.13
2018-10-02T22:16:21.808Z,5.27
2018-10-02T22:18:49.845Z,5.20
2018-10-02T22:21:17.859Z,5.40
2018-10-02T22:23:45.893Z,6.03
2018-10-02T22:26:13.916Z,5.12
2018-10-02T22:28:41.947Z,5.40
2018-10-02T22:31:09.964Z,5.63
2018-10-02T22:33:38.053Z,5.70
2018-10-02T22:36:06.015Z,5.47
2018-10-02T22:38:34.048Z,4.90
2018-10-02T22:41:02.060Z,5.43
2018-10-02T22:43:30.088Z,5.40
2018-10-02T22:45:58.095Z,5.57
2018-10-02T22:48:26.116Z,5.13
2018-10-02T22:50:54.144Z,5.83
2018-10-02T22:53:22.164Z,6.27
2018-10-02T22:55:50.196Z,5.77
2018-10-02T22:58:18.216Z,5.73
2018-10-02T23:00:47.381Z,5.80
2018-10-02T23:03:15.627Z,4.77
2018-10-02T23:05:43.691Z,5.20
2018-10-02T23:08:11.702Z,5.20
2018-10-02T23:10:39.716Z,6.03
2018-10-02T23:13:07.787Z,5.60
2018-10-02T23:15:35.810Z,5.23
2018-10-02T23:18:03.992Z,6.20
2018-10-02T23:20:32.016Z,4.97
2018-10-02T23:23:00.045Z,6.33
2018-10-02T23:25:28.057Z,5.43
2018-10-02T23:27:56.072Z,5.37
2018-10-02T23:30:24.116Z,5.87
2018-10-02T23:32:52.133Z,5.70
2018-10-02T23:35:20.156Z,6.70
2018-10-02T23:37:48.173Z,5.47
2018-10-02T23:40:16.355Z,5.50
2018-10-02T23:42:44.363Z,6.83
2018-10-02T23:45:12.405Z,5.55
2018-10-02T23:47:40.435Z,5.10
2018-10-02T23:50:08.469Z,5.37
2018-10-02T23:52:43.179Z,5.93
2018-10-02T23:55:11.197Z,5.50
2018-10-02T23:57:39.223Z,5.20
